sensor_id;sensor_type;location;lat;lon;timestamp;P1;durP1;ratioP1;P2;durP2;ratioP2
37199;SDS011;23096;50.892;16.746;2024-01-11T00:00:51;242.80;;;109.40;;
37199;SDS011;23096;50.892;16.746;2024-01-11T00:03:18;310.10;;;127.70;;
37199;SDS011;23096;50.892;16.746;2024-01-11T00:05:44;332.10;;;141.10;;
37199;SDS011;23096;50.892;16.746;2024-01-11T00:08:10;290.60;;;119.30;;
37199;SDS011;23096;50.892;16.746;2024-01-11T00:10:36;249.90;;;102.80;;
37199;SDS011;23096;50.892;16.746;2024-01-11T00:13:02;271.80;;;115.20;;
37199;SDS011;23096;50.892;16.746;2024-01-11T00:15:29;270.00;;;118.10;;
37199;SDS011;23096;50.892;16.746;2024-01-11T00:17:55;262.90;;;115.00;;
37199;SDS011;23096;50.892;16.746;2024-01-11T00:20:21;249.40;;;115.80;;
37199;SDS011;23096;50.892;16.746;2024-01-11T00:22:47;239.90;;;105.40;;
37199;SDS011;23096;50.892;16.746;2024-01-11T00:25:13;222.30;;;98.50;;
37199;SDS011;23096;50.892;16.746;2024-01-11T00:27:42;242.00;;;101.90;;
37199;SDS011;23096;50.892;16.746;2024-01-11T00:30:08;235.60;;;105.40;;
37199;SDS011;23096;50.892;16.746;2024-01-11T00:32:34;214.70;;;97.80;;
37199;SDS011;23096;50.892;16.746;2024-01-11T00:35:00;194.30;;;87.80;;
37199;SDS011;23096;50.892;16.746;2024-01-11T00:37:26;177.20;;;74.50;;
37199;SDS011;23096;50.892;16.746;2024-01-11T00:39:53;163.60;;;69.10;;
37199;SDS011;23096;50.892;16.746;2024-01-11T00:42:19;162.20;;;66.70;;
37199;SDS011;23096;50.892;16.746;2024-01-11T00:44:45;152.00;;;64.60;;
37199;SDS011;23096;50.892;16.746;2024-01-11T00:47:11;148.30;;;62.00;;
37199;SDS011;23096;50.892;16.746;2024-01-11T00:49:37;134.90;;;61.30;;
37199;SDS011;23096;50.892;16.746;2024-01-11T00:52:03;137.80;;;60.00;;
37199;SDS011;23096;50.892;16.746;2024-01-11T00:54:29;122.70;;;54.10;;
37199;SDS011;23096;50.892;16.746;2024-01-11T00:56:56;100.20;;;44.80;;
37199;SDS011;23096;50.892;16.746;2024-01-11T00:59:22;96.20;;;41.30;;
37199;SDS011;23096;50.892;16.746;2024-01-11T01:01:48;94.70;;;42.70;;
37199;SDS011;23096;50.892;16.746;2024-01-11T01:04:14;119.90;;;54.70;;
37199;SDS011;23096;50.892;16.746;2024-01-11T01:06:41;136.80;;;61.10;;
37199;SDS011;23096;50.892;16.746;2024-01-11T01:09:07;123.30;;;56.70;;
37199;SDS011;23096;50.892;16.746;2024-01-11T01:11:33;120.30;;;55.00;;
37199;SDS011;23096;50.892;16.746;2024-01-11T01:13:59;114.70;;;54.30;;
37199;SDS011;23096;50.892;16.746;2024-01-11T01:16:25;108.10;;;43.90;;
37199;SDS011;23096;50.892;16.746;2024-01-11T01:18:51;98.00;;;44.40;;
37199;SDS011;23096;50.892;16.746;2024-01-11T01:21:17;93.40;;;42.40;;
37199;SDS011;23096;50.892;16.746;2024-01-11T01:23:44;87.40;;;40.80;;
37199;SDS011;23096;50.892;16.746;2024-01-11T01:26:10;103.10;;;50.80;;
37199;SDS011;23096;50.892;16.746;2024-01-11T01:28:36;81.00;;;37.90;;
37199;SDS011;23096;50.892;16.746;2024-01-11T01:31:02;79.90;;;37.20;;
37199;SDS011;23096;50.892;16.746;2024-01-11T01:33:28;79.80;;;36.40;;
37199;SDS011;23096;50.892;16.746;2024-01-11T01:35:54;73.00;;;37.80;;
37199;SDS011;23096;50.892;16.746;2024-01-11T01:38:20;97.20;;;42.70;;
37199;SDS011;23096;50.892;16.746;2024-01-11T01:40:47;95.40;;;46.10;;
37199;SDS011;23096;50.892;16.746;2024-01-11T01:43:13;101.40;;;46.60;;
37199;SDS011;23096;50.892;16.746;2024-01-11T01:45:39;111.10;;;48.10;;
37199;SDS011;23096;50.892;16.746;2024-01-11T01:48:05;91.60;;;45.90;;
37199;SDS011;23096;50.892;16.746;2024-01-11T01:50:32;94.60;;;44.50;;
37199;SDS011;23096;50.892;16.746;2024-01-11T01:52:58;97.30;;;45.60;;
37199;SDS011;23096;50.892;16.746;2024-01-11T01:55:26;90.30;;;43.60;;
37199;SDS011;23096;50.892;16.746;2024-01-11T01:57:53;95.60;;;42.80;;
37199;SDS011;23096;50.892;16.746;2024-01-11T02:00:19;103.40;;;46.60;;
37199;SDS011;23096;50.892;16.746;2024-01-11T02:02:46;107.90;;;48.10;;
37199;SDS011;23096;50.892;16.746;2024-01-11T02:05:15;97.90;;;43.80;;
37199;SDS011;23096;50.892;16.746;2024-01-11T02:07:42;98.30;;;47.10;;
37199;SDS011;23096;50.892;16.746;2024-01-11T02:10:09;103.30;;;47.40;;
37199;SDS011;23096;50.892;16.746;2024-01-11T02:12:36;105.70;;;48.40;;
37199;SDS011;23096;50.892;16.746;2024-01-11T02:15:03;103.10;;;47.20;;
37199;SDS011;23096;50.892;16.746;2024-01-11T02:17:32;97.40;;;44.30;;
37199;SDS011;23096;50.892;16.746;2024-01-11T02:19:58;97.40;;;43.80;;
37199;SDS011;23096;50.892;16.746;2024-01-11T02:22:29;97.30;;;45.50;;
37199;SDS011;23096;50.892;16.746;2024-01-11T02:24:59;109.60;;;48.20;;
37199;SDS011;23096;50.892;16.746;2024-01-11T02:27:26;100.90;;;49.60;;
37199;SDS011;23096;50.892;16.746;2024-01-11T02:29:52;100.00;;;46.70;;
37199;SDS011;23096;50.892;16.746;2024-01-11T02:32:18;112.90;;;52.60;;
37199;SDS011;23096;50.892;16.746;2024-01-11T02:34:44;123.50;;;55.90;;
37199;SDS011;23096;50.892;16.746;2024-01-11T02:37:10;110.80;;;50.10;;
37199;SDS011;23096;50.892;16.746;2024-01-11T02:39:36;107.50;;;49.70;;
37199;SDS011;23096;50.892;16.746;2024-01-11T02:42:03;105.00;;;48.70;;
37199;SDS011;23096;50.892;16.746;2024-01-11T02:44:29;103.30;;;48.70;;
37199;SDS011;23096;50.892;16.746;2024-01-11T02:46:55;105.60;;;48.30;;
37199;SDS011;23096;50.892;16.746;2024-01-11T02:49:21;96.10;;;44.30;;
37199;SDS011;23096;50.892;16.746;2024-01-11T02:51:47;46.20;;;21.30;;
37199;SDS011;23096;50.892;16.746;2024-01-11T02:54:13;25.30;;;11.90;;
37199;SDS011;23096;50.892;16.746;2024-01-11T02:56:39;19.00;;;9.00;;
37199;SDS011;23096;50.892;16.746;2024-01-11T02:59:06;15.20;;;7.10;;
37199;SDS011;23096;50.892;16.746;2024-01-11T03:01:32;15.80;;;5.70;;
37199;SDS011;23096;50.892;16.746;2024-01-11T03:03:58;13.10;;;5.30;;
37199;SDS011;23096;50.892;16.746;2024-01-11T03:06:24;10.00;;;4.40;;
37199;SDS011;23096;50.892;16.746;2024-01-11T03:08:50;8.70;;;4.70;;
37199;SDS011;23096;50.892;16.746;2024-01-11T03:11:17;10.70;;;4.60;;
37199;SDS011;23096;50.892;16.746;2024-01-11T03:13:43;11.20;;;5.20;;
37199;SDS011;23096;50.892;16.746;2024-01-11T03:16:09;10.10;;;4.90;;
37199;SDS011;23096;50.892;16.746;2024-01-11T03:18:35;9.20;;;3.90;;
37199;SDS011;23096;50.892;16.746;2024-01-11T03:21:01;7.00;;;3.90;;
37199;SDS011;23096;50.892;16.746;2024-01-11T03:23:27;10.80;;;4.10;;
37199;SDS011;23096;50.892;16.746;2024-01-11T03:25:53;10.50;;;4.30;;
37199;SDS011;23096;50.892;16.746;2024-01-11T03:28:20;8.50;;;3.80;;
37199;SDS011;23096;50.892;16.746;2024-01-11T03:30:46;8.10;;;3.90;;
37199;SDS011;23096;50.892;16.746;2024-01-11T03:33:12;8.70;;;4.70;;
37199;SDS011;23096;50.892;16.746;2024-01-11T03:35:38;8.70;;;3.20;;
37199;SDS011;23096;50.892;16.746;2024-01-11T03:38:05;7.00;;;3.20;;
37199;SDS011;23096;50.892;16.746;2024-01-11T03:40:32;6.70;;;3.20;;
37199;SDS011;23096;50.892;16.746;2024-01-11T03:42:58;6.60;;;3.10;;
37199;SDS011;23096;50.892;16.746;2024-01-11T03:45:24;7.00;;;3.70;;
37199;SDS011;23096;50.892;16.746;2024-01-11T03:47:50;6.50;;;3.50;;
37199;SDS011;23096;50.892;16.746;2024-01-11T03:50:16;8.20;;;4.00;;
37199;SDS011;23096;50.892;16.746;2024-01-11T03:52:42;5.80;;;3.00;;
37199;SDS011;23096;50.892;16.746;2024-01-11T03:55:08;6.70;;;3.40;;
37199;SDS011;23096;50.892;16.746;2024-01-11T03:57:34;6.40;;;3.20;;
37199;SDS011;23096;50.892;16.746;2024-01-11T04:00:01;8.80;;;3.60;;
37199;SDS011;23096;50.892;16.746;2024-01-11T04:02:27;8.60;;;3.10;;
37199;SDS011;23096;50.892;16.746;2024-01-11T04:04:53;12.40;;;4.40;;
37199;SDS011;23096;50.892;16.746;2024-01-11T04:07:19;6.80;;;4.00;;
37199;SDS011;23096;50.892;16.746;2024-01-11T04:09:45;5.70;;;3.50;;
37199;SDS011;23096;50.892;16.746;2024-01-11T04:12:11;7.40;;;3.70;;
37199;SDS011;23096;50.892;16.746;2024-01-11T04:14:38;7.50;;;3.30;;
37199;SDS011;23096;50.892;16.746;2024-01-11T04:17:07;7.50;;;3.80;;
37199;SDS011;23096;50.892;16.746;2024-01-11T04:19:33;5.90;;;3.40;;
37199;SDS011;23096;50.892;16.746;2024-01-11T04:22:00;7.10;;;3.80;;
37199;SDS011;23096;50.892;16.746;2024-01-11T04:24:26;6.80;;;3.20;;
37199;SDS011;23096;50.892;16.746;2024-01-11T04:26:52;7.00;;;3.50;;
37199;SDS011;23096;50.892;16.746;2024-01-11T04:29:18;5.50;;;3.10;;
37199;SDS011;23096;50.892;16.746;2024-01-11T04:31:44;7.80;;;3.60;;
37199;SDS011;23096;50.892;16.746;2024-01-11T04:34:10;7.30;;;3.70;;
37199;SDS011;23096;50.892;16.746;2024-01-11T04:36:37;8.60;;;3.80;;
37199;SDS011;23096;50.892;16.746;2024-01-11T04:39:03;6.40;;;3.30;;
37199;SDS011;23096;50.892;16.746;2024-01-11T04:41:29;6.10;;;3.50;;
37199;SDS011;23096;50.892;16.746;2024-01-11T04:43:55;6.40;;;2.80;;
37199;SDS011;23096;50.892;16.746;2024-01-11T04:46:21;7.50;;;3.00;;
37199;SDS011;23096;50.892;16.746;2024-01-11T04:48:48;8.50;;;3.40;;
37199;SDS011;23096;50.892;16.746;2024-01-11T04:51:15;8.10;;;3.60;;
37199;SDS011;23096;50.892;16.746;2024-01-11T04:53:42;6.50;;;3.00;;
37199;SDS011;23096;50.892;16.746;2024-01-11T04:56:10;6.80;;;3.60;;
37199;SDS011;23096;50.892;16.746;2024-01-11T04:58:38;7.50;;;3.60;;
37199;SDS011;23096;50.892;16.746;2024-01-11T05:01:05;8.40;;;4.00;;
37199;SDS011;23096;50.892;16.746;2024-01-11T05:03:32;8.70;;;4.10;;
37199;SDS011;23096;50.892;16.746;2024-01-11T05:05:58;6.80;;;3.80;;
37199;SDS011;23096;50.892;16.746;2024-01-11T05:08:25;6.90;;;3.90;;
37199;SDS011;23096;50.892;16.746;2024-01-11T05:10:51;8.10;;;4.40;;
37199;SDS011;23096;50.892;16.746;2024-01-11T05:13:17;8.10;;;3.60;;
37199;SDS011;23096;50.892;16.746;2024-01-11T05:15:44;8.00;;;3.30;;
37199;SDS011;23096;50.892;16.746;2024-01-11T05:18:10;6.70;;;3.20;;
37199;SDS011;23096;50.892;16.746;2024-01-11T05:20:36;7.90;;;4.40;;
37199;SDS011;23096;50.892;16.746;2024-01-11T05:23:02;7.70;;;3.60;;
37199;SDS011;23096;50.892;16.746;2024-01-11T05:25:29;8.60;;;4.40;;
37199;SDS011;23096;50.892;16.746;2024-01-11T05:28:02;8.40;;;3.80;;
37199;SDS011;23096;50.892;16.746;2024-01-11T05:30:29;8.80;;;4.30;;
37199;SDS011;23096;50.892;16.746;2024-01-11T05:32:55;8.70;;;4.40;;
37199;SDS011;23096;50.892;16.746;2024-01-11T05:35:21;9.20;;;4.70;;
37199;SDS011;23096;50.892;16.746;2024-01-11T05:37:49;11.50;;;4.80;;
37199;SDS011;23096;50.892;16.746;2024-01-11T05:40:16;8.80;;;5.00;;
37199;SDS011;23096;50.892;16.746;2024-01-11T05:42:42;9.50;;;4.70;;
37199;SDS011;23096;50.892;16.746;2024-01-11T05:45:08;8.10;;;4.40;;
37199;SDS011;23096;50.892;16.746;2024-01-11T05:47:34;8.10;;;4.40;;
37199;SDS011;23096;50.892;16.746;2024-01-11T05:50:00;10.20;;;4.90;;
37199;SDS011;23096;50.892;16.746;2024-01-11T05:52:26;9.80;;;4.50;;
37199;SDS011;23096;50.892;16.746;2024-01-11T05:54:52;9.60;;;4.80;;
37199;SDS011;23096;50.892;16.746;2024-01-11T05:57:18;7.50;;;4.40;;
37199;SDS011;23096;50.892;16.746;2024-01-11T05:59:45;8.90;;;4.30;;
37199;SDS011;23096;50.892;16.746;2024-01-11T06:02:11;6.50;;;3.60;;
37199;SDS011;23096;50.892;16.746;2024-01-11T06:04:37;6.40;;;3.80;;
37199;SDS011;23096;50.892;16.746;2024-01-11T06:07:04;5.90;;;3.20;;
37199;SDS011;23096;50.892;16.746;2024-01-11T06:09:30;5.50;;;2.70;;
37199;SDS011;23096;50.892;16.746;2024-01-11T06:11:56;6.50;;;3.10;;
37199;SDS011;23096;50.892;16.746;2024-01-11T06:14:22;7.00;;;2.90;;
37199;SDS011;23096;50.892;16.746;2024-01-11T06:16:48;8.00;;;4.40;;
37199;SDS011;23096;50.892;16.746;2024-01-11T06:19:14;6.50;;;3.40;;
37199;SDS011;23096;50.892;16.746;2024-01-11T06:21:40;7.90;;;3.20;;
37199;SDS011;23096;50.892;16.746;2024-01-11T06:24:06;7.90;;;3.60;;
37199;SDS011;23096;50.892;16.746;2024-01-11T06:26:33;6.20;;;3.40;;
37199;SDS011;23096;50.892;16.746;2024-01-11T06:28:59;5.90;;;3.10;;
37199;SDS011;23096;50.892;16.746;2024-01-11T06:31:25;4.20;;;2.50;;
37199;SDS011;23096;50.892;16.746;2024-01-11T06:33:55;5.00;;;3.20;;
37199;SDS011;23096;50.892;16.746;2024-01-11T06:36:21;6.10;;;3.20;;
37199;SDS011;23096;50.892;16.746;2024-01-11T06:38:47;5.70;;;3.50;;
37199;SDS011;23096;50.892;16.746;2024-01-11T06:41:13;7.70;;;4.10;;
37199;SDS011;23096;50.892;16.746;2024-01-11T06:43:39;6.30;;;3.80;;
37199;SDS011;23096;50.892;16.746;2024-01-11T06:46:05;7.10;;;3.10;;
37199;SDS011;23096;50.892;16.746;2024-01-11T06:48:32;7.50;;;3.70;;
37199;SDS011;23096;50.892;16.746;2024-01-11T06:50:58;7.10;;;3.30;;
37199;SDS011;23096;50.892;16.746;2024-01-11T06:53:24;13.00;;;5.50;;
37199;SDS011;23096;50.892;16.746;2024-01-11T06:55:50;12.10;;;4.70;;
37199;SDS011;23096;50.892;16.746;2024-01-11T06:58:17;12.40;;;5.40;;
37199;SDS011;23096;50.892;16.746;2024-01-11T07:00:48;13.20;;;6.30;;
37199;SDS011;23096;50.892;16.746;2024-01-11T07:03:15;16.40;;;9.50;;
37199;SDS011;23096;50.892;16.746;2024-01-11T07:05:41;14.40;;;6.70;;
37199;SDS011;23096;50.892;16.746;2024-01-11T07:08:07;13.40;;;6.20;;
37199;SDS011;23096;50.892;16.746;2024-01-11T07:10:33;14.70;;;7.50;;
37199;SDS011;23096;50.892;16.746;2024-01-11T07:12:59;10.60;;;5.80;;
37199;SDS011;23096;50.892;16.746;2024-01-11T07:15:25;13.60;;;6.00;;
37199;SDS011;23096;50.892;16.746;2024-01-11T07:17:51;13.50;;;5.70;;
37199;SDS011;23096;50.892;16.746;2024-01-11T07:20:19;11.80;;;5.40;;
37199;SDS011;23096;50.892;16.746;2024-01-11T07:22:45;14.20;;;5.40;;
37199;SDS011;23096;50.892;16.746;2024-01-11T07:25:11;14.70;;;6.80;;
37199;SDS011;23096;50.892;16.746;2024-01-11T07:27:37;13.60;;;5.80;;
37199;SDS011;23096;50.892;16.746;2024-01-11T07:30:03;11.00;;;6.00;;
37199;SDS011;23096;50.892;16.746;2024-01-11T07:32:31;15.80;;;7.00;;
37199;SDS011;23096;50.892;16.746;2024-01-11T07:34:58;12.50;;;6.30;;
37199;SDS011;23096;50.892;16.746;2024-01-11T07:37:24;13.60;;;7.20;;
37199;SDS011;23096;50.892;16.746;2024-01-11T07:39:51;11.60;;;6.00;;
37199;SDS011;23096;50.892;16.746;2024-01-11T07:42:18;10.90;;;5.10;;
37199;SDS011;23096;50.892;16.746;2024-01-11T07:44:44;14.20;;;5.60;;
37199;SDS011;23096;50.892;16.746;2024-01-11T07:47:10;10.70;;;6.00;;
37199;SDS011;23096;50.892;16.746;2024-01-11T07:49:36;11.40;;;6.20;;
37199;SDS011;23096;50.892;16.746;2024-01-11T07:52:03;11.70;;;5.80;;
37199;SDS011;23096;50.892;16.746;2024-01-11T07:54:30;10.10;;;5.20;;
37199;SDS011;23096;50.892;16.746;2024-01-11T07:56:56;13.70;;;6.10;;
37199;SDS011;23096;50.892;16.746;2024-01-11T07:59:22;11.10;;;5.90;;
37199;SDS011;23096;50.892;16.746;2024-01-11T08:01:48;11.80;;;4.90;;
37199;SDS011;23096;50.892;16.746;2024-01-11T08:04:15;9.40;;;4.10;;
37199;SDS011;23096;50.892;16.746;2024-01-11T08:06:41;10.40;;;5.20;;
37199;SDS011;23096;50.892;16.746;2024-01-11T08:09:07;12.00;;;5.50;;
37199;SDS011;23096;50.892;16.746;2024-01-11T08:11:35;9.40;;;5.00;;
37199;SDS011;23096;50.892;16.746;2024-01-11T08:14:01;9.10;;;5.00;;
37199;SDS011;23096;50.892;16.746;2024-01-11T08:16:27;13.40;;;5.60;;
37199;SDS011;23096;50.892;16.746;2024-01-11T08:18:54;11.60;;;5.60;;
37199;SDS011;23096;50.892;16.746;2024-01-11T08:21:20;12.10;;;5.50;;
37199;SDS011;23096;50.892;16.746;2024-01-11T08:23:46;11.50;;;4.90;;
37199;SDS011;23096;50.892;16.746;2024-01-11T08:26:14;7.30;;;4.10;;
37199;SDS011;23096;50.892;16.746;2024-01-11T08:28:41;8.40;;;4.20;;
37199;SDS011;23096;50.892;16.746;2024-01-11T08:31:07;9.10;;;3.80;;
37199;SDS011;23096;50.892;16.746;2024-01-11T08:33:33;7.30;;;3.80;;
37199;SDS011;23096;50.892;16.746;2024-01-11T08:35:59;9.70;;;4.20;;
37199;SDS011;23096;50.892;16.746;2024-01-11T08:38:25;8.50;;;4.70;;
37199;SDS011;23096;50.892;16.746;2024-01-11T08:40:51;12.40;;;4.90;;
37199;SDS011;23096;50.892;16.746;2024-01-11T08:43:17;9.10;;;4.60;;
37199;SDS011;23096;50.892;16.746;2024-01-11T08:45:44;7.60;;;4.10;;
37199;SDS011;23096;50.892;16.746;2024-01-11T08:48:10;9.00;;;4.90;;
37199;SDS011;23096;50.892;16.746;2024-01-11T08:50:36;11.60;;;5.50;;
37199;SDS011;23096;50.892;16.746;2024-01-11T08:53:02;9.00;;;4.00;;
37199;SDS011;23096;50.892;16.746;2024-01-11T08:55:28;12.60;;;5.40;;
37199;SDS011;23096;50.892;16.746;2024-01-11T08:57:55;11.60;;;5.10;;
37199;SDS011;23096;50.892;16.746;2024-01-11T09:00:21;12.00;;;5.60;;
37199;SDS011;23096;50.892;16.746;2024-01-11T09:02:47;13.20;;;5.10;;
37199;SDS011;23096;50.892;16.746;2024-01-11T09:05:16;13.10;;;5.50;;
37199;SDS011;23096;50.892;16.746;2024-01-11T09:07:42;12.00;;;6.00;;
37199;SDS011;23096;50.892;16.746;2024-01-11T09:10:08;17.00;;;5.40;;
37199;SDS011;23096;50.892;16.746;2024-01-11T09:12:35;10.10;;;4.90;;
37199;SDS011;23096;50.892;16.746;2024-01-11T09:15:02;17.80;;;8.30;;
37199;SDS011;23096;50.892;16.746;2024-01-11T09:17:28;28.50;;;12.80;;
37199;SDS011;23096;50.892;16.746;2024-01-11T09:19:54;14.40;;;6.70;;
37199;SDS011;23096;50.892;16.746;2024-01-11T09:22:20;50.10;;;25.80;;
37199;SDS011;23096;50.892;16.746;2024-01-11T09:24:46;23.40;;;10.60;;
37199;SDS011;23096;50.892;16.746;2024-01-11T09:27:12;16.10;;;7.70;;
37199;SDS011;23096;50.892;16.746;2024-01-11T09:29:47;16.10;;;6.80;;
37199;SDS011;23096;50.892;16.746;2024-01-11T09:32:13;14.50;;;6.70;;
37199;SDS011;23096;50.892;16.746;2024-01-11T09:34:39;13.70;;;7.20;;
37199;SDS011;23096;50.892;16.746;2024-01-11T09:37:05;14.30;;;5.50;;
37199;SDS011;23096;50.892;16.746;2024-01-11T09:39:31;12.30;;;6.00;;
37199;SDS011;23096;50.892;16.746;2024-01-11T09:41:58;16.90;;;9.00;;
37199;SDS011;23096;50.892;16.746;2024-01-11T09:44:30;12.80;;;6.20;;
37199;SDS011;23096;50.892;16.746;2024-01-11T09:46:58;12.70;;;6.40;;
37199;SDS011;23096;50.892;16.746;2024-01-11T09:49:27;13.40;;;6.50;;
37199;SDS011;23096;50.892;16.746;2024-01-11T09:51:55;15.80;;;7.40;;
37199;SDS011;23096;50.892;16.746;2024-01-11T09:54:24;13.20;;;7.30;;
37199;SDS011;23096;50.892;16.746;2024-01-11T09:56:50;15.00;;;7.50;;
37199;SDS011;23096;50.892;16.746;2024-01-11T09:59:20;13.20;;;5.50;;
37199;SDS011;23096;50.892;16.746;2024-01-11T10:01:49;11.60;;;6.70;;
37199;SDS011;23096;50.892;16.746;2024-01-11T10:04:16;14.60;;;6.00;;
37199;SDS011;23096;50.892;16.746;2024-01-11T10:06:42;12.00;;;5.80;;
37199;SDS011;23096;50.892;16.746;2024-01-11T10:09:09;13.20;;;7.10;;
37199;SDS011;23096;50.892;16.746;2024-01-11T10:11:35;12.30;;;6.30;;
37199;SDS011;23096;50.892;16.746;2024-01-11T10:14:01;14.00;;;6.30;;
37199;SDS011;23096;50.892;16.746;2024-01-11T10:19:58;13.10;;;6.20;;
37199;SDS011;23096;50.892;16.746;2024-01-11T10:22:24;13.20;;;6.40;;
37199;SDS011;23096;50.892;16.746;2024-01-11T10:24:50;14.00;;;6.60;;
37199;SDS011;23096;50.892;16.746;2024-01-11T10:27:32;12.00;;;5.70;;
37199;SDS011;23096;50.892;16.746;2024-01-11T10:29:59;10.50;;;6.40;;
37199;SDS011;23096;50.892;16.746;2024-01-11T10:32:27;10.20;;;4.50;;
37199;SDS011;23096;50.892;16.746;2024-01-11T10:34:53;11.30;;;5.50;;
37199;SDS011;23096;50.892;16.746;2024-01-11T10:37:21;10.60;;;5.30;;
37199;SDS011;23096;50.892;16.746;2024-01-11T10:39:47;11.00;;;5.80;;
37199;SDS011;23096;50.892;16.746;2024-01-11T10:42:16;10.20;;;5.70;;
37199;SDS011;23096;50.892;16.746;2024-01-11T10:44:46;12.70;;;5.60;;
37199;SDS011;23096;50.892;16.746;2024-01-11T10:47:14;10.40;;;5.10;;
37199;SDS011;23096;50.892;16.746;2024-01-11T10:49:41;12.00;;;5.60;;
37199;SDS011;23096;50.892;16.746;2024-01-11T10:52:10;9.50;;;5.70;;
37199;SDS011;23096;50.892;16.746;2024-01-11T10:54:37;13.40;;;5.50;;
37199;SDS011;23096;50.892;16.746;2024-01-11T10:57:07;11.80;;;5.60;;
37199;SDS011;23096;50.892;16.746;2024-01-11T10:59:34;13.00;;;6.00;;
37199;SDS011;23096;50.892;16.746;2024-01-11T11:02:05;12.40;;;5.60;;
37199;SDS011;23096;50.892;16.746;2024-01-11T11:04:38;11.40;;;5.70;;
37199;SDS011;23096;50.892;16.746;2024-01-11T11:07:05;10.00;;;5.20;;
37199;SDS011;23096;50.892;16.746;2024-01-11T11:09:34;12.80;;;5.20;;
37199;SDS011;23096;50.892;16.746;2024-01-11T11:12:01;9.30;;;4.70;;
37199;SDS011;23096;50.892;16.746;2024-01-11T11:14:49;16.40;;;6.20;;
37199;SDS011;23096;50.892;16.746;2024-01-11T11:17:17;14.50;;;7.00;;
37199;SDS011;23096;50.892;16.746;2024-01-11T11:19:44;14.50;;;6.40;;
37199;SDS011;23096;50.892;16.746;2024-01-11T11:22:12;16.50;;;6.50;;
37199;SDS011;23096;50.892;16.746;2024-01-11T11:24:40;17.80;;;8.10;;
37199;SDS011;23096;50.892;16.746;2024-01-11T11:27:07;12.40;;;6.90;;
37199;SDS011;23096;50.892;16.746;2024-01-11T11:29:33;15.40;;;7.80;;
37199;SDS011;23096;50.892;16.746;2024-01-11T11:31:59;19.70;;;8.40;;
37199;SDS011;23096;50.892;16.746;2024-01-11T11:34:41;20.30;;;8.70;;
37199;SDS011;23096;50.892;16.746;2024-01-11T11:37:08;23.10;;;7.60;;
37199;SDS011;23096;50.892;16.746;2024-01-11T11:39:34;26.70;;;10.60;;
37199;SDS011;23096;50.892;16.746;2024-01-11T11:42:00;22.50;;;9.40;;
37199;SDS011;23096;50.892;16.746;2024-01-11T11:44:27;25.60;;;9.60;;
37199;SDS011;23096;50.892;16.746;2024-01-11T11:46:53;20.00;;;8.90;;
37199;SDS011;23096;50.892;16.746;2024-01-11T11:49:19;25.90;;;9.60;;
37199;SDS011;23096;50.892;16.746;2024-01-11T11:51:45;20.10;;;8.30;;
37199;SDS011;23096;50.892;16.746;2024-01-11T11:54:11;21.70;;;8.80;;
37199;SDS011;23096;50.892;16.746;2024-01-11T11:56:40;32.80;;;9.70;;
37199;SDS011;23096;50.892;16.746;2024-01-11T11:59:06;35.10;;;9.80;;
37199;SDS011;23096;50.892;16.746;2024-01-11T12:01:33;21.80;;;7.20;;
37199;SDS011;23096;50.892;16.746;2024-01-11T12:04:00;15.30;;;7.00;;
37199;SDS011;23096;50.892;16.746;2024-01-11T12:06:27;13.10;;;6.20;;
37199;SDS011;23096;50.892;16.746;2024-01-11T12:08:54;14.50;;;7.10;;
37199;SDS011;23096;50.892;16.746;2024-01-11T12:11:21;16.30;;;8.20;;
37199;SDS011;23096;50.892;16.746;2024-01-11T12:13:48;15.70;;;7.30;;
37199;SDS011;23096;50.892;16.746;2024-01-11T12:16:14;15.50;;;7.00;;
37199;SDS011;23096;50.892;16.746;2024-01-11T12:18:41;12.80;;;6.10;;
37199;SDS011;23096;50.892;16.746;2024-01-11T12:21:10;17.20;;;8.20;;
37199;SDS011;23096;50.892;16.746;2024-01-11T12:23:38;21.30;;;10.20;;
37199;SDS011;23096;50.892;16.746;2024-01-11T12:26:05;17.70;;;8.90;;
37199;SDS011;23096;50.892;16.746;2024-01-11T12:28:36;18.30;;;9.10;;
37199;SDS011;23096;50.892;16.746;2024-01-11T12:31:06;23.10;;;13.40;;
37199;SDS011;23096;50.892;16.746;2024-01-11T12:33:37;20.20;;;12.10;;
37199;SDS011;23096;50.892;16.746;2024-01-11T12:36:04;15.80;;;10.60;;
37199;SDS011;23096;50.892;16.746;2024-01-11T12:38:31;41.20;;;24.50;;
37199;SDS011;23096;50.892;16.746;2024-01-11T12:40:58;28.60;;;16.40;;
37199;SDS011;23096;50.892;16.746;2024-01-11T12:43:24;25.60;;;13.30;;
37199;SDS011;23096;50.892;16.746;2024-01-11T12:45:51;41.40;;;19.70;;
37199;SDS011;23096;50.892;16.746;2024-01-11T12:48:17;52.40;;;26.00;;
37199;SDS011;23096;50.892;16.746;2024-01-11T12:50:44;24.70;;;14.30;;
37199;SDS011;23096;50.892;16.746;2024-01-11T12:53:13;38.20;;;16.40;;
37199;SDS011;23096;50.892;16.746;2024-01-11T12:55:45;23.50;;;11.10;;
37199;SDS011;23096;50.892;16.746;2024-01-11T12:58:27;24.30;;;10.80;;
37199;SDS011;23096;50.892;16.746;2024-01-11T13:00:53;26.60;;;11.80;;
37199;SDS011;23096;50.892;16.746;2024-01-11T13:03:19;25.90;;;12.90;;
37199;SDS011;23096;50.892;16.746;2024-01-11T13:05:48;25.30;;;13.80;;
37199;SDS011;23096;50.892;16.746;2024-01-11T13:08:16;24.70;;;13.40;;
37199;SDS011;23096;50.892;16.746;2024-01-11T13:10:42;23.30;;;12.00;;
37199;SDS011;23096;50.892;16.746;2024-01-11T13:13:08;29.50;;;13.40;;
37199;SDS011;23096;50.892;16.746;2024-01-11T13:15:34;26.40;;;12.60;;
37199;SDS011;23096;50.892;16.746;2024-01-11T13:18:01;29.10;;;13.20;;
37199;SDS011;23096;50.892;16.746;2024-01-11T13:20:31;28.30;;;14.40;;
37199;SDS011;23096;50.892;16.746;2024-01-11T13:23:17;34.60;;;17.00;;
37199;SDS011;23096;50.892;16.746;2024-01-11T13:25:49;31.20;;;15.70;;
37199;SDS011;23096;50.892;16.746;2024-01-11T13:28:15;34.00;;;18.00;;
37199;SDS011;23096;50.892;16.746;2024-01-11T13:30:42;38.40;;;20.10;;
37199;SDS011;23096;50.892;16.746;2024-01-11T13:33:09;30.60;;;17.60;;
37199;SDS011;23096;50.892;16.746;2024-01-11T13:35:38;37.40;;;18.10;;
37199;SDS011;23096;50.892;16.746;2024-01-11T13:38:05;35.30;;;20.50;;
37199;SDS011;23096;50.892;16.746;2024-01-11T13:40:31;35.30;;;20.80;;
37199;SDS011;23096;50.892;16.746;2024-01-11T13:42:58;41.60;;;20.20;;
37199;SDS011;23096;50.892;16.746;2024-01-11T13:45:24;40.40;;;22.10;;
37199;SDS011;23096;50.892;16.746;2024-01-11T13:47:51;43.30;;;22.30;;
37199;SDS011;23096;50.892;16.746;2024-01-11T13:50:19;40.00;;;19.40;;
37199;SDS011;23096;50.892;16.746;2024-01-11T13:52:45;34.60;;;19.10;;
37199;SDS011;23096;50.892;16.746;2024-01-11T13:55:12;42.70;;;22.30;;
37199;SDS011;23096;50.892;16.746;2024-01-11T13:57:38;39.30;;;19.80;;
37199;SDS011;23096;50.892;16.746;2024-01-11T14:00:05;48.00;;;23.00;;
37199;SDS011;23096;50.892;16.746;2024-01-11T14:02:32;41.10;;;22.30;;
37199;SDS011;23096;50.892;16.746;2024-01-11T14:04:58;45.00;;;20.50;;
37199;SDS011;23096;50.892;16.746;2024-01-11T14:07:25;41.80;;;21.90;;
37199;SDS011;23096;50.892;16.746;2024-01-11T14:09:51;37.90;;;19.10;;
37199;SDS011;23096;50.892;16.746;2024-01-11T14:12:17;40.70;;;21.30;;
37199;SDS011;23096;50.892;16.746;2024-01-11T14:14:43;44.40;;;22.70;;
37199;SDS011;23096;50.892;16.746;2024-01-11T14:17:09;40.50;;;22.00;;
37199;SDS011;23096;50.892;16.746;2024-01-11T14:19:35;48.40;;;23.20;;